• Join FlightAware (Why Join?)
  • Login
  • US Flag 
01:43AM EST


 

Airport Tracker/Info


-or-


 

Live Flight TrackerFlight Track Log ✈ ASQ5870 ✈ 01-Sep-2013 ✈ KORD - KTVC

Flight Track Log - Related Links

Times and Time Zones

All times are in EDT time to prevent confusion due to time zone crossing. See the ASQ5870 flight status page for this flight to view local times or setup timezone preferences in your user account.

Time Position Orientation Groundspeed Altitude Reporting Facility
EDT Latitude Longitude Course Direction KTS MPH feet Rate Location/Type
05:35PM 42.0000 -87.9500 20° North 180 207 2,400  Level Chicago TRACON
05:36PM 42.0500 -88.0000 323° Northwest 213 245 4,100 1,860 Climbing Chicago TRACON
05:38PM 42.2355 -87.8120 10° North  Level FlightAware Approximate
05:38PM 42.1325 -88.0269 346° North 259 298 7,000  Level Chicago Center
05:39PM 42.3267 -87.7892 10° North  Level FlightAware Approximate
05:39PM 42.2242 -88.0228 North 276 318 9,500  Level Chicago Center
05:40PM 42.4148 -87.7509 20° North  Level FlightAware Approximate
05:40PM 42.3067 -88.0153 North 296 341 11,500  Level Chicago Center
05:41PM 42.3933 -88.0000 North 313 360 13,700 1,560 Climbing Chicago Center
05:42PM 42.4728 -87.9347 31° Northeast 333 383 14,800 1,500 Climbing Chicago Center
05:43PM 42.5539 -87.8667 32° Northeast 342 394 16,800 1,800 Climbing Chicago Center
05:44PM 42.6342 -87.7972 32° Northeast 341 392 18,500 1,560 Climbing Chicago Center
05:45PM 42.7167 -87.7278 32° Northeast 347 399 20,000 1,560 Climbing Chicago Center
05:46PM 42.8156 -87.6431 32° Northeast 360 414 21,700 1,320 Climbing Chicago Center
05:47PM 42.8869 -87.5350 48° Northeast 392 451 22,800 1,020 Climbing Chicago Center
05:48PM 42.9506 -87.4053 56° Northeast 410 472 23,800 960 Climbing Chicago Center
05:49PM 43.0083 -87.2733 59° Northeast 420 483 24,800 1,020 Climbing Chicago Center
05:50PM 43.0694 -87.1319 59° Northeast 430 495 25,900 1,020 Climbing Chicago Center
05:51PM 43.1311 -86.9861 60° Northeast 440 506 26,900 480 Climbing Chicago Center
05:52PM 43.1939 -86.8378 60° Northeast 448 516 27,000  Climbing Chicago Center
05:53PM 43.2761 -86.6492 59° Northeast 477 549 27,000  Level Chicago Center
05:54PM 43.3467 -86.4861 59° Northeast 492 566 27,000  Level Chicago Center
05:55PM 43.4408 -86.3514 46° Northeast 490 564 27,000  Level Chicago Center
05:56PM 43.5481 -86.2364 38° Northeast 486 559 27,000 -540 Level Chicago Center
05:57PM 43.6328 -86.1453 38° Northeast 484 557 26,000 -1,620 Descending Minneapolis Center
05:58PM 43.7275 -86.0436 38° Northeast 449 517 23,900 -2,280 Descending Minneapolis Center
05:59PM 43.8422 -85.9889 19° North 368 423 21,400 -2,640 Descending Minneapolis Center
06:00PM 43.9314 -85.9489 18° North 340 391 18,600 -2,940 Descending Minneapolis Center
06:01PM 44.0192 -85.9114 17° North 332 382 15,400 -2,940 Descending Minneapolis Center
06:02PM 44.1086 -85.8683 19° North 321 369 12,600 -2,580 Descending Minneapolis Center
06:03PM 44.1878 -85.8336 17° North 303 349 10,200 -2,340 Descending Minneapolis Center
06:04PM 44.2636 -85.8003 17° North 291 335 7,900 -2,100 Descending Minneapolis Center
06:05PM 44.3350 -85.7669 18° North 276 318 5,900 -1,920 Descending Minneapolis Center
06:06PM 44.4022 -85.7369 18° North 264 304 4,100 -960 Descending Minneapolis Center
06:07PM 44.4658 -85.7069 19° North 253 291 4,000 -300 Descending Minneapolis Center
06:08PM 44.5264 -85.6792 18° North 243 280 3,600 -420 Descending Minneapolis Center
06:09PM 44.5961 -85.6486 17° North 230 265 3,200 -600 Descending Minneapolis Center
06:10PM 44.6417 -85.6017 36° Northeast 216 249 2,400 -780 Descending Minneapolis Center
06:11PM 44.6847 -85.5883 12° North 181 208 1,700 -780 Descending Minneapolis Center
06:12PM 44.7208 -85.5886 360° North 149 171 900 -780 Descending Minneapolis Center